Time;durP1;ratioP1;P1;durP2;ratioP2;P2;SDS_P1;SDS_P2;PMS_P1;PMS_P2;Temp;Humidity;BMP_temperature;BMP_pressure;BME280_temperature;BME280_humidity;BME280_pressure;Samples;Min_cycle;Max_cycle;Signal;HPM_P1;HPM_P2
2023/05/05 00:00:34;;;;;;;2.10;1.90;;;;;;;20.82;39.42;96854.03;5033565;28;20079;-30
2023/05/05 00:02:59;;;;;;;2.63;1.65;;;;;;;20.80;39.46;96854.50;5033312;28;20029;-29
2023/05/05 00:05:25;;;;;;;2.30;2.00;;;;;;;20.90;39.70;96850.34;5033607;28;20043;-29
2023/05/05 00:07:50;;;;;;;3.70;2.20;;;;;;;20.89;39.45;96857.13;5033584;28;20026;-30
2023/05/05 00:10:16;;;;;;;2.63;2.15;;;;;;;20.86;39.58;96857.34;5033311;28;20413;-29
2023/05/05 00:12:41;;;;;;;2.75;2.00;;;;;;;20.74;39.73;96850.94;5033801;28;20469;-29
2023/05/05 00:15:07;;;;;;;2.40;2.05;;;;;;;20.97;39.79;96852.69;5033307;28;20467;-29
2023/05/05 00:17:32;;;;;;;2.45;1.80;;;;;;;20.89;39.47;96851.63;5033776;28;20480;-29
2023/05/05 00:19:58;;;;;;;6.32;2.40;;;;;;;20.78;40.17;96851.47;5033382;28;20025;-31
2023/05/05 00:22:24;;;;;;;4.15;2.00;;;;;;;20.89;39.22;96850.88;5033330;28;20504;-29
2023/05/05 00:24:49;;;;;;;2.22;2.03;;;;;;;20.95;40.15;96841.41;5033784;28;20107;-29
2023/05/05 00:27:15;;;;;;;2.80;1.90;;;;;;;20.95;39.99;96846.91;5033405;28;20072;-29
2023/05/05 00:29:40;;;;;;;3.45;1.95;;;;;;;21.06;39.84;96846.25;5032892;28;20021;-29
2023/05/05 00:32:06;;;;;;;2.03;1.83;;;;;;;21.04;39.17;96841.22;5033252;28;20420;-29
2023/05/05 00:34:31;;;;;;;2.85;1.88;;;;;;;21.01;39.37;96844.22;5033099;28;20095;-29
2023/05/05 00:36:57;;;;;;;3.13;1.98;;;;;;;20.87;39.62;96840.31;5041132;28;20025;-29
2023/05/05 00:39:23;;;;;;;6.53;2.63;;;;;;;20.87;39.74;96834.81;5037531;28;20027;-31
2023/05/05 00:41:48;;;;;;;2.20;2.00;;;;;;;20.97;39.28;96832.66;5032918;28;20781;-29
2023/05/05 00:44:14;;;;;;;2.50;2.10;;;;;;;21.01;39.06;96831.19;5033720;28;20028;-29
2023/05/05 00:46:41;;;;;;;2.90;2.00;;;;;;;20.94;39.46;96834.38;5033363;28;20025;-29
2023/05/05 00:49:07;;;;;;;3.15;1.80;;;;;;;20.93;39.26;96816.31;5034048;28;20040;-29
2023/05/05 00:51:32;;;;;;;3.47;1.92;;;;;;;20.97;39.67;96824.38;5033295;28;20018;-29
2023/05/05 00:53:58;;;;;;;2.65;2.00;;;;;;;20.97;39.52;96825.13;5032573;28;20117;-29
2023/05/05 00:56:26;;;;;;;2.42;2.10;;;;;;;20.87;39.39;96821.00;5033052;28;20375;-29
2023/05/05 00:58:51;;;;;;;2.10;1.90;;;;;;;20.80;39.25;96816.66;5033082;28;20025;-30
2023/05/05 01:01:17;;;;;;;3.28;2.17;;;;;;;20.74;39.13;96813.09;5032746;28;20056;-30
2023/05/05 01:03:42;;;;;;;3.97;2.08;;;;;;;20.90;38.90;96806.25;5038520;28;20028;-29
2023/05/05 01:06:17;;;;;;;3.83;1.95;;;;;;;20.93;38.62;96810.03;5034658;28;20421;-29
2023/05/05 01:09:04;;;;;;;2.13;1.92;;;;;;;20.97;38.72;96816.09;5032830;28;20024;-29
2023/05/05 01:12:02;;;;;;;3.08;1.85;;;;;;;20.86;38.59;96805.72;5032781;28;20097;-29
2023/05/05 01:15:00;;;;;;;2.20;2.00;;;;;;;20.83;38.52;96803.94;5032825;28;20029;-29
2023/05/05 01:17:38;;;;;;;2.92;2.00;;;;;;;20.76;38.55;96810.63;5039107;28;20050;-29
2023/05/05 01:20:19;;;;;;;2.90;1.80;;;;;;;20.85;38.36;96811.72;5032683;28;20029;-29
2023/05/05 01:22:49;;;;;;;1.77;1.67;;;;;;;20.83;38.06;96801.16;5039952;28;20048;-29
2023/05/05 01:25:43;;;;;;;1.88;1.70;;;;;;;20.53;38.56;96806.09;5039262;28;20048;-29
2023/05/05 01:28:27;;;;;;;3.38;2.08;;;;;;;20.62;38.65;96803.19;5037964;28;20397;-30
2023/05/05 01:31:25;;;;;;;2.03;1.83;;;;;;;20.51;39.08;96802.31;5040061;28;20035;-29
2023/05/05 01:33:57;;;;;;;1.88;1.73;;;;;;;20.50;38.80;96792.53;5033299;28;20102;-29
2023/05/05 01:36:30;;;;;;;2.15;1.90;;;;;;;20.57;38.37;96792.88;5032877;28;20025;-29
2023/05/05 01:38:59;;;;;;;2.30;1.88;;;;;;;20.42;38.80;96790.19;5033051;28;20029;-29
2023/05/05 01:41:30;;;;;;;2.10;1.90;;;;;;;20.56;38.75;96791.34;5032665;28;20091;-29
2023/05/05 01:44:01;;;;;;;3.60;2.30;;;;;;;20.64;38.50;96789.69;5033491;28;20029;-29
2023/05/05 01:46:28;;;;;;;2.28;1.80;;;;;;;20.53;38.33;96781.28;5036177;28;20029;-31
2023/05/05 01:48:55;;;;;;;2.20;2.00;;;;;;;20.66;38.89;96794.69;5036057;28;20553;-29
2023/05/05 01:51:23;;;;;;;2.00;1.63;;;;;;;20.73;38.29;96784.03;5036340;28;20047;-29
2023/05/05 01:53:58;;;;;;;3.25;1.90;;;;;;;20.62;38.17;96788.66;5035496;28;20107;-29
2023/05/05 01:56:25;;;;;;;2.55;1.88;;;;;;;20.34;38.68;96788.31;5036100;28;20029;-29
2023/05/05 01:58:52;;;;;;;2.95;1.80;;;;;;;20.43;38.70;96788.94;5035785;28;20021;-30
2023/05/05 02:01:24;;;;;;;2.67;1.95;;;;;;;20.31;38.63;96784.50;5036156;28;20024;-29
2023/05/05 02:03:50;;;;;;;3.13;2.00;;;;;;;20.44;38.23;96790.47;5037025;28;20059;-30
2023/05/05 02:06:25;;;;;;;3.58;2.38;;;;;;;20.52;38.12;96788.06;5035629;28;20017;-31
2023/05/05 02:08:53;;;;;;;3.35;2.35;;;;;;;20.52;38.00;96787.31;5036019;28;20029;-29
2023/05/05 02:11:20;;;;;;;3.08;2.08;;;;;;;20.12;38.40;96791.53;5035830;28;20017;-29
2023/05/05 02:13:48;;;;;;;2.10;1.90;;;;;;;20.40;38.07;96791.91;5035707;28;20465;-30
2023/05/05 02:16:14;;;;;;;2.75;1.95;;;;;;;20.32;38.25;96791.53;5036082;28;20116;-31
2023/05/05 02:18:41;;;;;;;2.25;1.98;;;;;;;20.49;38.07;96791.03;5035537;28;20108;-29
2023/05/05 02:21:07;;;;;;;2.83;2.30;;;;;;;20.53;37.95;96792.31;5035406;28;20018;-31
2023/05/05 02:23:32;;;;;;;2.10;1.90;;;;;;;20.54;38.05;96784.81;5035482;28;20075;-29
2023/05/05 02:26:06;;;;;;;2.60;1.92;;;;;;;20.17;38.79;96779.81;5035891;28;20124;-29
2023/05/05 02:28:34;;;;;;;2.50;2.08;;;;;;;20.23;38.89;96786.19;5035595;28;20017;-29
2023/05/05 02:31:01;;;;;;;2.53;2.05;;;;;;;20.18;38.94;96792.34;5039243;28;20013;-29
2023/05/05 02:33:30;;;;;;;2.90;2.70;;;;;;;20.32;38.91;96786.03;5038627;28;20412;-30
2023/05/05 02:35:59;;;;;;;3.45;2.20;;;;;;;20.23;39.36;96788.16;5034781;28;20026;-29
2023/05/05 02:38:28;;;;;;;4.00;2.22;;;;;;;20.28;39.62;96779.97;5035338;28;20064;-29
2023/05/05 02:40:55;;;;;;;3.47;2.00;;;;;;;20.20;39.75;96778.88;5035434;28;20476;-29
2023/05/05 02:43:24;;;;;;;2.95;2.22;;;;;;;20.20;40.08;96781.63;5035967;28;20044;-29
2023/05/05 02:45:49;;;;;;;2.42;2.20;;;;;;;20.37;39.83;96781.88;5035131;28;20059;-29
2023/05/05 02:48:15;;;;;;;4.15;2.63;;;;;;;20.31;40.06;96779.00;5035160;28;20450;-28
2023/05/05 02:50:40;;;;;;;4.93;2.30;;;;;;;20.20;40.36;96783.63;5035179;28;20025;-29
2023/05/05 02:53:06;;;;;;;3.50;2.20;;;;;;;20.26;40.49;96776.97;5034940;28;20029;-29
2023/05/05 02:56:13;;;;;;;2.30;2.10;;;;;;;20.27;40.29;96778.47;5034377;28;20091;-29
2023/05/05 02:58:58;;;;;;;4.05;2.53;;;;;;;20.32;40.41;96775.00;5034161;28;20041;-29
2023/05/05 03:02:01;;;;;;;2.45;2.25;;;;;;;20.42;39.79;96773.66;5042005;28;20056;-29
2023/05/05 03:04:49;;;;;;;2.40;2.15;;;;;;;20.32;40.27;96771.50;5042859;28;20482;-29
2023/05/05 03:07:37;;;;;;;2.80;2.22;;;;;;;20.29;40.00;96770.47;5036167;28;20473;-29
2023/05/05 03:10:08;;;;;;;2.28;2.03;;;;;;;20.35;39.91;96757.56;5034318;28;20061;-29
2023/05/05 03:12:51;;;;;;;2.90;2.10;;;;;;;20.25;40.33;96766.41;5042603;28;20021;-29
2023/05/05 03:15:18;;;;;;;2.47;2.28;;;;;;;20.32;39.85;96760.47;5033358;28;20026;-29
2023/05/05 03:17:45;;;;;;;2.97;2.20;;;;;;;20.25;39.96;96761.66;5034744;28;20439;-29
2023/05/05 03:20:14;;;;;;;2.50;2.30;;;;;;;20.22;40.30;96759.88;5035001;28;20025;-29
2023/05/05 03:22:39;;;;;;;3.20;2.30;;;;;;;20.24;40.50;96757.41;5039536;28;20050;-30
2023/05/05 03:25:05;;;;;;;3.05;2.17;;;;;;;20.22;40.19;96759.13;5034944;28;20363;-30
2023/05/05 03:27:31;;;;;;;2.83;2.10;;;;;;;20.12;40.58;96758.50;5034608;28;20516;-29
2023/05/05 03:29:56;;;;;;;2.90;2.17;;;;;;;20.24;40.34;96753.88;5034289;28;20388;-29
2023/05/05 03:32:22;;;;;;;2.70;2.05;;;;;;;20.30;40.23;96755.44;5034257;28;20009;-29
2023/05/05 03:34:48;;;;;;;3.22;2.25;;;;;;;20.33;40.05;96759.25;5034059;28;20045;-29
2023/05/05 03:37:14;;;;;;;2.40;1.95;;;;;;;20.31;40.26;96762.47;5034462;28;20025;-29
2023/05/05 03:39:39;;;;;;;3.20;2.17;;;;;;;20.11;40.62;96762.50;5033968;28;20057;-29
2023/05/05 03:42:05;;;;;;;2.50;2.30;;;;;;;20.31;40.06;96754.22;5034192;28;20482;-29
2023/05/05 03:44:30;;;;;;;2.38;2.13;;;;;;;20.30;40.01;96768.47;5034562;28;20433;-29
2023/05/05 03:46:56;;;;;;;2.33;2.10;;;;;;;20.30;39.95;96760.19;5034021;28;20037;-29
2023/05/05 03:49:21;;;;;;;3.58;2.25;;;;;;;20.35;39.63;96757.56;5033840;28;20017;-29
2023/05/05 03:51:47;;;;;;;3.55;2.03;;;;;;;20.29;39.59;96759.44;5032794;28;20409;-30
2023/05/05 03:54:12;;;;;;;2.55;2.15;;;;;;;20.40;39.50;96765.13;5033717;28;20393;-32
2023/05/05 03:56:38;;;;;;;1.95;1.75;;;;;;;20.15;40.13;96770.56;5032474;28;20044;-28
2023/05/05 03:59:04;;;;;;;2.13;1.90;;;;;;;20.09;39.87;96767.72;5033738;28;20366;-29
2023/05/05 04:01:30;;;;;;;2.85;2.10;;;;;;;20.26;39.78;96757.69;5033537;28;20025;-29
2023/05/05 04:03:56;;;;;;;2.10;1.90;;;;;;;20.42;39.47;96765.38;5033851;28;20029;-30
2023/05/05 04:06:22;;;;;;;2.00;1.85;;;;;;;20.25;39.62;96764.41;5033851;28;20031;-30
2023/05/05 04:08:53;;;;;;;3.15;2.22;;;;;;;20.30;39.52;96760.97;5033169;28;20013;-29
2023/05/05 04:11:20;;;;;;;4.20;1.77;;;;;;;20.29;39.38;96759.44;5033776;28;20021;-31
2023/05/05 04:13:47;;;;;;;2.47;1.75;;;;;;;20.16;39.81;96753.53;5033644;28;20029;-29
2023/05/05 04:16:12;;;;;;;2.45;2.00;;;;;;;20.15;39.99;96749.28;5033303;28;20025;-30
2023/05/05 04:18:38;;;;;;;3.22;2.30;;;;;;;20.28;39.46;96752.41;5033634;28;20500;-29
2023/05/05 04:21:03;;;;;;;2.92;2.10;;;;;;;20.16;40.00;96759.03;5033174;28;20023;-29
2023/05/05 04:23:30;;;;;;;2.28;2.08;;;;;;;20.23;39.87;96755.88;5033384;28;20022;-29
2023/05/05 04:25:56;;;;;;;2.30;2.03;;;;;;;20.28;39.55;96752.41;5040587;28;20365;-29
2023/05/05 04:28:22;;;;;;;2.67;2.03;;;;;;;20.23;39.71;96766.91;5031980;28;20032;-29
2023/05/05 04:30:47;;;;;;;2.42;2.03;;;;;;;20.16;39.66;96763.78;5033249;28;20025;-29
2023/05/05 04:33:12;;;;;;;2.70;2.08;;;;;;;20.39;39.05;96774.66;5033209;28;20022;-29
2023/05/05 04:35:38;;;;;;;2.53;2.10;;;;;;;20.08;39.80;96771.69;5033288;28;20025;-29
2023/05/05 04:38:03;;;;;;;2.20;1.95;;;;;;;20.22;39.25;96768.13;5034954;28;20412;-29
2023/05/05 04:40:29;;;;;;;2.42;2.10;;;;;;;20.20;39.65;96778.09;5037110;28;20405;-29
2023/05/05 04:42:54;;;;;;;3.65;1.90;;;;;;;20.17;39.48;96768.81;5033562;28;20021;-29
2023/05/05 04:45:20;;;;;;;3.65;2.00;;;;;;;20.30;39.50;96771.22;5031877;28;20482;-29
2023/05/05 04:47:45;;;;;;;2.65;2.17;;;;;;;20.26;39.55;96785.22;5032949;28;20029;-29
2023/05/05 04:50:11;;;;;;;2.20;2.00;;;;;;;20.24;39.75;96781.44;5032901;28;20492;-30
2023/05/05 04:52:36;;;;;;;2.10;1.80;;;;;;;20.28;39.63;96773.69;5033174;28;20018;-29
2023/05/05 04:55:02;;;;;;;2.35;2.10;;;;;;;20.24;39.91;96784.19;5032614;28;20046;-29
2023/05/05 04:57:30;;;;;;;2.00;1.77;;;;;;;20.18;40.15;96786.84;5038307;28;20036;-29
2023/05/05 04:59:55;;;;;;;2.30;2.00;;;;;;;20.07;40.18;96787.47;5035600;28;20048;-29
2023/05/05 05:02:21;;;;;;;2.72;2.03;;;;;;;20.24;39.90;96784.94;5033090;28;20481;-29
2023/05/05 05:04:46;;;;;;;2.50;1.80;;;;;;;20.34;39.72;96785.56;5032941;28;20029;-29
2023/05/05 05:07:13;;;;;;;2.28;1.98;;;;;;;20.33;40.10;96789.53;5032975;28;20033;-29
2023/05/05 05:09:39;;;;;;;2.97;2.17;;;;;;;20.28;40.44;96790.97;5032927;28;20074;-29
2023/05/05 05:12:06;;;;;;;2.50;2.30;;;;;;;20.21;40.41;96791.41;5032964;28;20017;-31
2023/05/05 05:14:38;;;;;;;2.60;2.17;;;;;;;20.26;40.67;96787.22;5034713;28;20021;-29
2023/05/05 05:17:07;;;;;;;2.10;1.90;;;;;;;20.35;40.73;96790.59;5033126;28;20029;-29
2023/05/05 05:19:33;;;;;;;4.50;2.28;;;;;;;20.29;40.98;96792.50;5033439;28;20117;-30
2023/05/05 05:21:59;;;;;;;3.40;2.30;;;;;;;20.29;41.07;96789.75;5036706;28;20025;-32
2023/05/05 05:24:25;;;;;;;2.47;2.20;;;;;;;20.48;40.75;96798.53;5036559;28;20025;-29
2023/05/05 05:26:50;;;;;;;4.25;2.50;;;;;;;20.30;41.09;96796.78;5044071;28;20021;-30
2023/05/05 05:29:16;;;;;;;2.30;2.10;;;;;;;20.27;41.69;96795.00;5036446;28;20022;-29
2023/05/05 05:31:41;;;;;;;2.95;2.60;;;;;;;20.37;41.77;96798.41;5036552;28;20087;-29
2023/05/05 05:34:07;;;;;;;2.75;2.53;;;;;;;20.26;41.89;96790.72;5036528;28;20060;-32
2023/05/05 05:36:32;;;;;;;2.72;2.25;;;;;;;20.31;41.96;96800.28;5036109;28;20052;-29
2023/05/05 05:38:57;;;;;;;5.50;2.33;;;;;;;20.42;41.87;96801.19;5036490;28;20028;-29
2023/05/05 05:41:23;;;;;;;4.35;2.50;;;;;;;20.39;41.90;96796.69;5036277;28;20033;-29
2023/05/05 05:43:48;;;;;;;4.82;2.42;;;;;;;20.50;41.91;96807.06;5036903;28;20026;-30
2023/05/05 05:46:14;;;;;;;4.63;2.55;;;;;;;20.35;42.25;96801.63;5036450;28;20017;-29
2023/05/05 05:48:39;;;;;;;5.00;3.13;;;;;;;20.50;42.29;96806.31;5036332;28;20025;-29
2023/05/05 05:51:05;;;;;;;3.05;2.35;;;;;;;20.50;42.38;96800.81;5036128;28;20152;-29
2023/05/05 05:53:32;;;;;;;3.22;2.25;;;;;;;20.62;42.25;96807.97;5036348;28;20028;-31
2023/05/05 05:55:57;;;;;;;5.05;2.50;;;;;;;20.54;42.21;96802.09;5036117;28;20029;-29
2023/05/05 05:58:22;;;;;;;4.45;2.30;;;;;;;20.53;42.49;96808.84;5035915;28;20032;-29
2023/05/05 06:00:48;;;;;;;2.50;2.17;;;;;;;20.61;42.27;96809.19;5036225;28;20070;-29
2023/05/05 06:03:13;;;;;;;3.80;2.08;;;;;;;20.58;42.25;96805.41;5035742;28;20028;-29
2023/05/05 06:05:39;;;;;;;6.30;2.30;;;;;;;20.59;42.65;96806.91;5036202;28;20060;-29
2023/05/05 06:08:04;;;;;;;3.38;1.92;;;;;;;20.66;42.62;96808.47;5036163;28;20048;-29
2023/05/05 06:10:30;;;;;;;2.50;2.30;;;;;;;20.48;43.06;96815.06;5036756;28;20030;-30
2023/05/05 06:12:55;;;;;;;2.97;2.15;;;;;;;20.59;43.26;96815.19;5035509;28;20466;-30
2023/05/05 06:15:21;;;;;;;3.28;2.25;;;;;;;20.57;43.35;96819.66;5035573;28;20014;-29
2023/05/05 06:17:46;;;;;;;3.70;2.55;;;;;;;20.50;43.66;96815.34;5035377;28;20017;-29
2023/05/05 06:20:12;;;;;;;3.58;2.72;;;;;;;20.57;43.58;96819.66;5035765;28;20025;-29
2023/05/05 06:22:39;;;;;;;3.55;2.60;;;;;;;20.61;43.96;96811.94;5035841;28;20025;-29
2023/05/05 06:25:05;;;;;;;2.78;2.50;;;;;;;20.64;43.82;96820.00;5040387;28;20021;-30
2023/05/05 06:27:30;;;;;;;3.10;2.55;;;;;;;20.48;44.76;96817.06;5037503;28;20029;-29
2023/05/05 06:29:56;;;;;;;3.03;2.70;;;;;;;20.63;44.72;96809.47;5035716;28;20031;-30
2023/05/05 06:32:21;;;;;;;2.65;2.42;;;;;;;20.64;44.51;96811.75;5035565;28;20016;-29
2023/05/05 06:34:47;;;;;;;3.50;2.53;;;;;;;20.74;44.47;96810.34;5035919;28;20060;-30
2023/05/05 06:37:14;;;;;;;3.67;2.70;;;;;;;20.63;45.83;96814.97;5039837;28;20014;-30
2023/05/05 06:39:40;;;;;;;5.07;2.50;;;;;;;20.46;46.72;96811.25;5042497;28;20503;-30
2023/05/05 06:42:05;;;;;;;5.93;3.10;;;;;;;20.81;45.79;96820.19;5034916;28;20025;-29
2023/05/05 06:44:33;;;;;;;5.25;3.05;;;;;;;20.67;47.25;96818.28;5035235;28;20381;-29
2023/05/05 06:46:58;;;;;;;4.43;3.20;;;;;;;20.74;47.01;96812.34;5035289;28;20033;-29
2023/05/05 06:49:24;;;;;;;4.60;3.20;;;;;;;20.69;47.49;96815.78;5042240;28;20023;-29
2023/05/05 06:51:49;;;;;;;3.30;3.00;;;;;;;20.75;47.72;96817.38;5041405;28;20025;-31
2023/05/05 06:54:15;;;;;;;3.80;3.40;;;;;;;20.66;48.32;96816.75;5034785;28;20060;-29
2023/05/05 06:56:41;;;;;;;5.53;3.70;;;;;;;20.89;47.67;96815.03;5034805;28;20032;-29
2023/05/05 06:59:06;;;;;;;5.22;3.15;;;;;;;20.73;47.72;96819.09;5034861;28;20485;-29
2023/05/05 07:01:32;;;;;;;3.80;3.40;;;;;;;20.62;49.49;96818.97;5035046;28;20034;-31
2023/05/05 07:03:57;;;;;;;4.30;3.28;;;;;;;20.89;48.09;96826.81;5033802;28;20025;-29
2023/05/05 07:06:22;;;;;;;3.67;3.10;;;;;;;20.70;49.61;96820.81;5035514;28;20487;-29
2023/05/05 07:08:48;;;;;;;8.60;3.28;;;;;;;20.63;49.63;96823.25;5040607;28;20106;-29
2023/05/05 07:11:13;;;;;;;4.60;3.15;;;;;;;20.55;49.47;96817.38;5034235;28;20009;-30
2023/05/05 07:13:40;;;;;;;3.97;3.00;;;;;;;20.75;48.61;96822.13;5033322;28;20028;-29
2023/05/05 07:16:05;;;;;;;3.28;2.97;;;;;;;20.82;48.63;96824.47;5034783;28;20018;-30
2023/05/05 07:18:30;;;;;;;3.90;3.38;;;;;;;20.95;48.10;96826.84;5034788;28;20029;-29
2023/05/05 07:20:56;;;;;;;3.33;3.03;;;;;;;20.84;48.61;96827.50;5034308;28;20108;-29
2023/05/05 07:23:21;;;;;;;3.70;3.22;;;;;;;20.58;49.61;96823.94;5036511;28;20032;-29
2023/05/05 07:25:47;;;;;;;3.58;3.10;;;;;;;21.00;48.37;96821.41;5041442;28;20384;-29
2023/05/05 07:28:13;;;;;;;3.58;3.03;;;;;;;21.03;47.98;96817.66;5034385;28;20031;-29
2023/05/05 07:30:38;;;;;;;3.25;2.95;;;;;;;20.81;49.22;96825.69;5034368;28;20124;-29
2023/05/05 07:33:03;;;;;;;4.80;2.78;;;;;;;21.03;48.20;96827.94;5034316;28;20018;-29
2023/05/05 07:35:29;;;;;;;5.10;3.20;;;;;;;21.10;48.45;96825.50;5034411;28;20022;-29
2023/05/05 07:37:55;;;;;;;5.55;2.80;;;;;;;21.09;47.97;96829.50;5034141;28;20029;-31
2023/05/05 07:40:20;;;;;;;3.45;2.80;;;;;;;21.24;47.56;96823.91;5034120;28;20032;-29
2023/05/05 07:42:46;;;;;;;4.20;3.00;;;;;;;21.11;47.83;96826.28;5033316;28;20077;-30
2023/05/05 07:45:11;;;;;;;3.17;2.85;;;;;;;21.13;47.60;96823.78;5034339;28;20112;-30
2023/05/05 07:47:37;;;;;;;5.40;3.03;;;;;;;21.17;47.88;96825.06;5034248;28;20053;-30
2023/05/05 07:50:04;;;;;;;4.07;2.90;;;;;;;21.38;47.31;96836.09;5033784;28;20527;-30
2023/05/05 07:52:30;;;;;;;3.88;3.05;;;;;;;21.16;47.71;96828.31;5034212;28;20414;-29
2023/05/05 07:54:55;;;;;;;3.50;2.50;;;;;;;21.15;47.79;96826.78;5034001;28;20072;-29
2023/05/05 07:57:21;;;;;;;4.80;3.10;;;;;;;21.14;47.89;96831.56;5033572;28;20104;-29
2023/05/05 07:59:46;;;;;;;3.80;2.90;;;;;;;21.26;47.59;96823.44;5033962;28;20017;-29
2023/05/05 08:02:12;;;;;;;6.13;3.03;;;;;;;21.36;47.50;96828.28;5033827;28;20038;-29
2023/05/05 08:04:42;;;;;;;3.80;3.05;;;;;;;21.21;48.14;96824.13;5033640;28;20547;-29
2023/05/05 08:07:08;;;;;;;3.75;3.10;;;;;;;21.05;48.85;96828.19;5033994;28;20029;-29
2023/05/05 08:09:37;;;;;;;5.45;3.03;;;;;;;21.13;48.87;96824.53;5033367;28;20017;-30
2023/05/05 08:12:02;;;;;;;3.40;3.10;;;;;;;21.14;48.82;96834.31;5033549;28;20507;-29
2023/05/05 08:14:29;;;;;;;3.78;2.72;;;;;;;21.26;49.06;96831.72;5033202;28;20115;-30
2023/05/05 08:16:54;;;;;;;4.75;3.20;;;;;;;21.05;49.59;96834.47;5033735;28;20017;-29
2023/05/05 08:19:22;;;;;;;4.20;2.83;;;;;;;21.16;49.14;96829.06;5033631;28;20440;-29
2023/05/05 08:21:47;;;;;;;3.85;3.00;;;;;;;21.11;49.37;96829.78;5033621;28;20358;-29
2023/05/05 08:24:13;;;;;;;3.50;3.03;;;;;;;21.10;49.38;96824.75;5033291;28;20025;-29
2023/05/05 08:26:38;;;;;;;4.40;2.88;;;;;;;21.12;49.16;96828.53;5033863;28;20033;-30
2023/05/05 08:29:04;;;;;;;3.92;3.20;;;;;;;21.05;49.40;96834.47;5032055;28;20033;-29
2023/05/05 08:31:35;;;;;;;3.85;3.10;;;;;;;21.15;49.07;96833.06;5033428;28;20026;-29
2023/05/05 08:34:01;;;;;;;3.40;3.10;;;;;;;21.17;49.01;96838.84;5033314;28;20025;-29
2023/05/05 08:36:27;;;;;;;3.75;3.25;;;;;;;21.21;48.87;96832.41;5033241;28;20021;-29
2023/05/05 08:38:53;;;;;;;3.35;2.95;;;;;;;21.21;49.10;96835.16;5033355;28;20440;-30
2023/05/05 08:41:19;;;;;;;5.80;3.53;;;;;;;21.22;48.87;96834.69;5033345;28;20033;-29
2023/05/05 08:43:49;;;;;;;3.38;3.08;;;;;;;21.21;48.94;96837.91;5042022;28;20025;-30
2023/05/05 08:46:15;;;;;;;3.75;3.22;;;;;;;21.12;49.34;96836.81;5033029;28;20017;-29
2023/05/05 08:48:43;;;;;;;5.47;3.28;;;;;;;21.15;49.04;96833.06;5033663;28;20436;-29
2023/05/05 08:51:19;;;;;;;3.95;3.13;;;;;;;21.34;48.77;96832.78;5040951;28;20449;-29
2023/05/05 08:53:59;;;;;;;4.30;3.08;;;;;;;21.25;48.83;96830.94;5034337;28;20067;-30
2023/05/05 08:56:30;;;;;;;4.45;3.63;;;;;;;21.28;48.79;96829.19;5037114;28;20071;-29
2023/05/05 08:58:57;;;;;;;4.30;3.65;;;;;;;21.25;49.12;96830.94;5040161;28;20029;-30
2023/05/05 09:01:23;;;;;;;3.63;3.20;;;;;;;21.39;48.77;96829.28;5044556;28;20084;-30
2023/05/05 09:03:48;;;;;;;4.68;3.10;;;;;;;21.24;49.42;96823.91;5037168;28;20025;-29
2023/05/05 09:06:14;;;;;;;4.25;3.05;;;;;;;21.33;48.89;96831.25;5037954;28;20389;-29
2023/05/05 09:08:40;;;;;;;10.93;3.20;;;;;;;21.33;49.04;96831.25;5037280;28;20412;-29
2023/05/05 09:11:05;;;;;;;3.72;3.40;;;;;;;21.46;48.72;96826.13;5036770;28;20018;-29
2023/05/05 09:13:32;;;;;;;4.43;3.45;;;;;;;21.45;49.26;96830.88;5036978;28;20021;-29
2023/05/05 09:15:58;;;;;;;5.85;3.38;;;;;;;21.35;49.54;96829.53;5037222;28;20361;-29
2023/05/05 09:18:24;;;;;;;3.60;2.97;;;;;;;21.42;49.44;96825.56;5036662;28;20021;-29
2023/05/05 09:20:50;;;;;;;3.92;3.53;;;;;;;21.36;49.15;96833.81;5036621;28;20033;-29
2023/05/05 09:23:17;;;;;;;4.78;3.30;;;;;;;21.46;49.01;96835.16;5043840;28;20020;-30
2023/05/05 09:25:45;;;;;;;5.07;3.17;;;;;;;21.42;48.71;96839.38;5038222;28;20024;-33
2023/05/05 09:28:13;;;;;;;5.50;3.42;;;;;;;21.48;48.58;96832.66;5039283;28;20389;-29
2023/05/05 09:30:40;;;;;;;4.43;3.20;;;;;;;21.52;48.29;96833.19;5036569;28;20026;-29
2023/05/05 09:33:06;;;;;;;3.72;3.20;;;;;;;21.39;49.36;96830.06;5036482;28;20017;-29
2023/05/05 09:35:49;;;;;;;3.92;3.10;;;;;;;21.46;48.30;96829.63;5036364;28;20033;-30
2023/05/05 09:38:14;;;;;;;5.25;3.17;;;;;;;21.42;48.66;96834.59;5036556;28;20104;-29
2023/05/05 09:40:47;;;;;;;4.47;2.90;;;;;;;21.38;48.64;96827.81;5036392;28;20453;-29
2023/05/05 09:43:14;;;;;;;5.07;3.90;;;;;;;21.52;48.66;96835.19;5036391;28;20032;-29
2023/05/05 09:45:40;;;;;;;4.47;3.05;;;;;;;21.45;48.77;96827.34;5036296;28;20108;-29
2023/05/05 09:48:05;;;;;;;4.50;3.03;;;;;;;21.51;48.50;96828.91;5043858;28;20124;-29
2023/05/05 09:50:44;;;;;;;3.17;2.50;;;;;;;21.46;47.82;96828.88;5036250;28;20026;-30
2023/05/05 09:53:10;;;;;;;4.25;2.67;;;;;;;21.50;47.09;96832.19;5036299;28;20017;-29
2023/05/05 09:55:36;;;;;;;6.70;2.92;;;;;;;21.50;46.59;96812.84;5036016;28;20045;-30
2023/05/05 09:58:19;;;;;;;2.60;2.10;;;;;;;21.51;45.98;96819.91;5036294;28;20037;-30
2023/05/05 10:00:45;;;;;;;3.15;2.67;;;;;;;21.55;45.87;96812.13;5035940;28;20025;-29
2023/05/05 10:03:11;;;;;;;3.22;2.50;;;;;;;21.63;46.35;96810.44;5035708;28;20040;-30
2023/05/05 10:05:46;;;;;;;2.92;2.63;;;;;;;21.59;46.65;96809.16;5035379;28;20026;-29
2023/05/05 10:08:12;;;;;;;3.35;2.97;;;;;;;21.50;47.19;96804.59;5043012;28;20029;-31
2023/05/05 10:11:05;;;;;;;5.60;2.97;;;;;;;21.47;47.10;96811.81;5035776;28;20017;-29
2023/05/05 10:13:35;;;;;;;3.85;2.75;;;;;;;21.57;47.06;96806.88;5041912;28;20029;-30
2023/05/05 10:16:03;;;;;;;4.55;2.97;;;;;;;21.60;47.20;96799.63;5035686;28;20021;-29
2023/05/05 10:18:31;;;;;;;5.15;2.80;;;;;;;21.52;47.47;96800.06;5035803;28;20034;-29
2023/05/05 10:20:57;;;;;;;3.47;2.88;;;;;;;21.59;47.74;96798.88;5035548;28;20025;-29
2023/05/05 10:23:26;;;;;;;3.00;2.70;;;;;;;21.53;47.76;96800.81;5035617;28;20028;-29
2023/05/05 10:26:04;;;;;;;2.70;2.50;;;;;;;21.56;47.60;96799.84;5036180;28;20481;-29
2023/05/05 10:28:40;;;;;;;4.40;2.85;;;;;;;21.50;47.64;96794.31;5035770;28;20033;-29
2023/05/05 10:31:12;;;;;;;3.03;2.72;;;;;;;21.62;47.24;96784.09;5035195;28;20033;-29
2023/05/05 10:33:55;;;;;;;7.72;3.10;;;;;;;21.59;47.34;96787.84;5035364;28;20355;-29
2023/05/05 10:36:22;;;;;;;4.65;2.88;;;;;;;21.61;46.84;96779.81;5035451;28;20024;-29
2023/05/05 10:38:49;;;;;;;3.03;2.72;;;;;;;21.67;46.17;96783.38;5035213;28;20466;-30
2023/05/05 10:41:17;;;;;;;3.47;2.60;;;;;;;21.69;46.05;96786.41;5035005;28;20030;-29
2023/05/05 10:43:43;;;;;;;3.03;2.40;;;;;;;21.64;46.73;96778.81;5034953;28;20021;-30
2023/05/05 10:46:09;;;;;;;6.53;2.85;;;;;;;21.68;46.74;96782.13;5035417;28;20473;-29
2023/05/05 10:48:45;;;;;;;4.38;2.78;;;;;;;21.59;46.64;96773.28;5035478;28;20045;-29
2023/05/05 10:51:31;;;;;;;4.53;3.20;;;;;;;21.67;46.80;96777.84;5042425;28;20389;-29
2023/05/05 10:54:09;;;;;;;3.40;2.83;;;;;;;21.68;46.70;96778.59;5047544;28;20433;-29
2023/05/05 10:56:40;;;;;;;3.30;2.63;;;;;;;21.61;46.58;96776.31;5035244;28;20111;-29
2023/05/05 10:59:36;;;;;;;4.55;2.85;;;;;;;21.74;46.73;96766.38;5034969;28;20037;-29
2023/05/05 11:02:38;;;;;;;3.30;2.78;;;;;;;21.78;46.46;96772.41;5034734;28;20021;-29
2023/05/05 11:05:16;;;;;;;3.20;2.47;;;;;;;21.75;46.05;96761.59;5034832;28;20028;-29
2023/05/05 11:07:43;;;;;;;5.68;2.63;;;;;;;21.70;46.45;96762.31;5034615;28;20433;-29
2023/05/05 11:10:11;;;;;;;3.28;2.45;;;;;;;21.69;45.79;96758.78;5034447;28;20032;-29
2023/05/05 11:12:56;;;;;;;4.45;2.88;;;;;;;21.74;45.85;96755.31;5034739;28;20393;-29
2023/05/05 11:15:28;;;;;;;2.70;2.40;;;;;;;21.69;45.95;96758.03;5034711;28;20022;-29
2023/05/05 11:17:57;;;;;;;4.28;2.95;;;;;;;21.63;46.04;96748.97;5033548;28;20473;-30
2023/05/05 11:20:58;;;;;;;4.00;2.40;;;;;;;21.69;45.80;96747.75;5034136;28;20428;-29
2023/05/05 11:23:24;;;;;;;5.18;2.70;;;;;;;21.62;46.33;96745.47;5034272;28;20505;-29
2023/05/05 11:25:50;;;;;;;4.15;2.58;;;;;;;21.64;45.94;96739.41;5034379;28;20051;-29
2023/05/05 11:28:23;;;;;;;4.30;2.80;;;;;;;21.72;45.88;96735.72;5034572;28;20022;-30
2023/05/05 11:31:14;;;;;;;7.38;2.88;;;;;;;21.74;45.72;96736.00;5035003;28;21074;-29
2023/05/05 11:33:40;;;;;;;4.05;2.88;;;;;;;21.75;45.31;96736.75;5036578;28;20021;-29
2023/05/05 11:36:07;;;;;;;2.58;2.38;;;;;;;21.75;45.06;96737.50;5034455;28;20031;-29
2023/05/05 11:38:36;;;;;;;4.18;2.58;;;;;;;21.79;45.03;96729.72;5034428;28;20041;-29
2023/05/05 11:41:54;;;;;;;3.35;2.88;;;;;;;21.77;45.01;96729.47;5041419;28;20044;-29